createdAt,value
2023-02-19T00:02:00.478Z,30.57
2023-02-19T00:04:28.906Z,26.77
2023-02-19T00:06:57.772Z,29.63
2023-02-19T00:09:27.045Z,26.27
2023-02-19T00:11:56.811Z,34.17
2023-02-19T00:14:25.218Z,30.57
2023-02-19T00:16:53.572Z,28.40
2023-02-19T00:19:22.784Z,24.90
2023-02-19T00:21:53.688Z,23.60
2023-02-19T00:24:23.213Z,27.80
2023-02-19T00:26:51.544Z,22.47
2023-02-19T00:29:22.776Z,23.63
2023-02-19T00:31:52.005Z,25.70
2023-02-19T00:34:20.496Z,22.70
2023-02-19T00:36:48.864Z,21.23
2023-02-19T00:39:18.755Z,25.03
2023-02-19T00:41:47.602Z,26.20
2023-02-19T00:44:16.770Z,21.67
2023-02-19T00:46:48.064Z,23.97
2023-02-19T00:49:19.359Z,25.17
2023-02-19T00:51:48.081Z,24.03
2023-02-19T00:54:16.818Z,25.97
2023-02-19T00:56:45.253Z,18.80
2023-02-19T00:59:14.731Z,22.77
2023-02-19T01:01:46.354Z,20.53
2023-02-19T01:04:16.597Z,23.87
2023-02-19T01:06:45.085Z,21.87
2023-02-19T01:09:13.782Z,23.23
2023-02-19T01:11:47.168Z,20.67
2023-02-19T01:14:15.661Z,21.43
2023-02-19T01:16:44.064Z,18.67
2023-02-19T01:19:12.648Z,19.67
2023-02-19T01:21:42.933Z,17.33
2023-02-19T01:24:12.131Z,18.93
2023-02-19T01:26:40.613Z,21.37
2023-02-19T01:29:09.535Z,18.03
2023-02-19T01:31:38.032Z,17.30
2023-02-19T01:34:07.344Z,18.60
2023-02-19T01:36:37.159Z,19.83
2023-02-19T01:39:08.074Z,17.67
2023-02-19T01:41:39.903Z,20.90
2023-02-19T01:44:11.491Z,19.13
2023-02-19T01:46:40.727Z,19.67
2023-02-19T01:49:14.035Z,18.33
2023-02-19T01:51:46.309Z,18.30
2023-02-19T01:54:19.119Z,19.03
2023-02-19T01:56:48.919Z,19.30
2023-02-19T01:59:18.429Z,18.43
2023-02-19T02:01:47.140Z,19.90
2023-02-19T02:04:16.778Z,19.70
2023-02-19T02:06:50.379Z,18.30
2023-02-19T02:09:40.860Z,18.67
2023-02-19T02:12:09.609Z,16.73
2023-02-19T02:14:40.646Z,15.23
2023-02-19T02:17:17.546Z,17.50
2023-02-19T02:20:19.332Z,19.77
2023-02-19T02:22:54.195Z,15.33
2023-02-19T02:25:45.226Z,16.50
2023-02-19T02:28:25.935Z,15.83
2023-02-19T02:30:57.510Z,20.00
2023-02-19T02:33:33.956Z,15.47
2023-02-19T02:36:08.755Z,20.23
2023-02-19T02:38:43.976Z,18.77
2023-02-19T02:41:14.412Z,16.77
2023-02-19T02:43:43.549Z,15.93
2023-02-19T02:46:16.946Z,24.37
2023-02-19T02:48:53.904Z,14.60
2023-02-19T02:51:27.986Z,13.90
2023-02-19T02:54:27.473Z,15.17
2023-02-19T02:56:59.216Z,14.87
2023-02-19T02:59:33.040Z,15.73
2023-02-19T03:02:14.820Z,14.23
2023-02-19T03:05:23.581Z,16.20
2023-02-19T03:07:57.868Z,16.67
2023-02-19T03:10:32.575Z,15.43
2023-02-19T03:13:21.480Z,16.00
2023-02-19T03:16:12.033Z,17.23
2023-02-19T03:19:02.207Z,14.43
2023-02-19T03:21:33.997Z,14.10
2023-02-19T03:24:21.466Z,15.43
2023-02-19T03:26:54.190Z,14.17
2023-02-19T03:29:27.425Z,14.30
2023-02-19T03:32:10.342Z,14.30
2023-02-19T03:34:45.275Z,16.20
2023-02-19T03:37:17.240Z,13.67
2023-02-19T03:39:46.573Z,18.43
2023-02-19T03:42:26.200Z,15.63
2023-02-19T03:45:13.635Z,15.77
2023-02-19T03:47:50.404Z,14.50
2023-02-19T03:50:26.051Z,15.20
2023-02-19T03:53:03.412Z,15.03
2023-02-19T03:55:38.569Z,13.80
2023-02-19T03:58:14.437Z,14.20
2023-02-19T04:00:51.241Z,17.03
2023-02-19T04:03:25.805Z,13.30
2023-02-19T04:06:02.059Z,13.43
2023-02-19T04:08:32.904Z,13.23
2023-02-19T04:11:05.846Z,13.87
2023-02-19T04:13:42.035Z,14.13
2023-02-19T04:16:15.019Z,13.47
2023-02-19T04:18:47.632Z,16.37
2023-02-19T04:21:18.439Z,14.90
2023-02-19T04:23:47.434Z,14.13
2023-02-19T04:26:16.531Z,13.90
2023-02-19T04:28:45.196Z,15.00
2023-02-19T04:31:14.122Z,15.03
2023-02-19T04:33:44.444Z,13.50
2023-02-19T04:36:13.067Z,13.67
2023-02-19T04:38:42.911Z,14.40
2023-02-19T04:41:11.725Z,14.33
2023-02-19T04:43:40.366Z,17.93
2023-02-19T04:46:08.756Z,14.33
2023-02-19T04:48:37.185Z,18.13
2023-02-19T04:51:07.863Z,15.33
2023-02-19T04:53:37.024Z,13.90
2023-02-19T04:56:11.546Z,14.00
2023-02-19T04:58:40.487Z,16.20
2023-02-19T05:01:10.018Z,14.10
2023-02-19T05:03:38.839Z,14.03
2023-02-19T05:06:09.325Z,13.57
2023-02-19T05:08:38.078Z,13.43
2023-02-19T05:11:08.660Z,14.77
2023-02-19T05:13:39.404Z,14.70
2023-02-19T05:16:09.731Z,14.00
2023-02-19T05:18:38.248Z,13.80
2023-02-19T05:21:07.009Z,17.93
2023-02-19T05:23:35.439Z,15.53
2023-02-19T05:26:07.206Z,13.80
2023-02-19T05:28:36.138Z,14.00
2023-02-19T05:31:09.723Z,14.20
2023-02-19T05:33:38.635Z,38.87
2023-02-19T05:36:09.384Z,13.90
2023-02-19T05:38:38.253Z,15.97
2023-02-19T05:41:13.858Z,15.93
2023-02-19T05:43:43.429Z,19.57
2023-02-19T05:46:14.880Z,13.87
2023-02-19T05:48:44.268Z,16.30
2023-02-19T05:51:14.411Z,15.10
2023-02-19T05:53:43.756Z,13.83
2023-02-19T05:56:32.546Z,14.53
2023-02-19T05:59:01.866Z,18.80
2023-02-19T06:01:32.020Z,15.03
2023-02-19T06:04:00.482Z,14.10
2023-02-19T06:06:29.549Z,16.33
2023-02-19T06:08:58.149Z,16.33
2023-02-19T06:11:26.940Z,16.07
2023-02-19T06:13:55.733Z,16.50
2023-02-19T06:16:24.358Z,21.03
2023-02-19T06:18:54.170Z,15.40
2023-02-19T06:21:22.779Z,13.60
2023-02-19T06:23:51.274Z,13.50
2023-02-19T06:26:21.853Z,16.23
2023-02-19T06:28:52.072Z,15.23
2023-02-19T06:31:22.307Z,30.57
2023-02-19T06:33:51.692Z,14.53
2023-02-19T06:36:22.752Z,13.03
2023-02-19T06:38:52.382Z,15.70
2023-02-19T06:41:20.976Z,13.47
2023-02-19T06:43:49.332Z,16.00
2023-02-19T06:46:17.790Z,15.57
2023-02-19T06:48:46.954Z,16.37
2023-02-19T06:51:18.816Z,13.70
2023-02-19T06:53:49.511Z,18.97
2023-02-19T06:56:26.652Z,16.10
2023-02-19T06:58:55.650Z,15.20
2023-02-19T07:01:24.631Z,13.87
2023-02-19T07:03:53.706Z,12.93
2023-02-19T07:06:23.108Z,14.50
2023-02-19T07:08:53.494Z,18.03
2023-02-19T07:11:21.973Z,16.30
2023-02-19T07:13:55.218Z,15.20
2023-02-19T07:16:24.032Z,17.67
2023-02-19T07:18:52.552Z,14.43
2023-02-19T07:21:21.263Z,13.17
2023-02-19T07:23:49.987Z,13.93
2023-02-19T07:26:21.676Z,15.57
2023-02-19T07:28:52.295Z,14.03
2023-02-19T07:31:23.006Z,15.43
2023-02-19T07:33:52.069Z,13.10
2023-02-19T07:36:21.770Z,15.67
2023-02-19T07:38:56.153Z,14.67
2023-02-19T07:41:26.686Z,18.10
2023-02-19T07:43:58.386Z,15.63
2023-02-19T07:46:26.918Z,13.90
2023-02-19T07:48:55.249Z,12.90
2023-02-19T07:51:23.793Z,13.03
2023-02-19T07:53:52.232Z,12.50
2023-02-19T07:56:21.407Z,13.13
2023-02-19T07:58:51.358Z,14.27
2023-02-19T08:01:44.317Z,13.60
2023-02-19T08:04:13.290Z,14.20
2023-02-19T08:06:42.227Z,13.50
2023-02-19T08:09:10.981Z,22.50
2023-02-19T08:11:57.092Z,20.27
2023-02-19T08:14:28.021Z,14.93
2023-02-19T08:16:56.802Z,22.60
2023-02-19T08:19:25.473Z,12.83
2023-02-19T08:21:54.680Z,13.57
2023-02-19T08:24:23.061Z,18.47
2023-02-19T08:26:51.459Z,12.63
2023-02-19T08:29:19.863Z,23.77
2023-02-19T08:31:49.884Z,13.90
2023-02-19T08:34:18.418Z,17.47
2023-02-19T08:36:46.721Z,20.90
2023-02-19T08:39:15.112Z,12.50
2023-02-19T08:41:43.432Z,12.93
2023-02-19T08:44:11.792Z,13.87
2023-02-19T08:46:40.120Z,15.60
2023-02-19T08:49:09.871Z,16.73
2023-02-19T08:51:38.474Z,16.60
2023-02-19T08:54:06.924Z,10.77
2023-02-19T08:56:35.321Z,14.00
2023-02-19T08:59:03.713Z,12.50
2023-02-19T09:01:32.159Z,11.63
2023-02-19T09:04:00.602Z,14.30
2023-02-19T09:06:30.430Z,11.23
2023-02-19T09:08:58.807Z,13.97
2023-02-19T09:11:27.254Z,14.03
2023-02-19T09:13:57.842Z,15.57
2023-02-19T09:16:26.326Z,15.03
2023-02-19T09:18:54.703Z,14.27
2023-02-19T09:21:23.142Z,13.07
2023-02-19T09:23:52.890Z,14.47
2023-02-19T09:26:21.253Z,11.40
2023-02-19T09:28:49.682Z,12.33
2023-02-19T09:31:18.070Z,13.60
2023-02-19T09:33:47.519Z,11.23
2023-02-19T09:36:17.153Z,15.63
2023-02-19T09:38:46.115Z,9.07
2023-02-19T09:41:25.005Z,11.30
2023-02-19T09:43:53.609Z,12.70
2023-02-19T09:46:30.694Z,15.40
2023-02-19T09:49:05.374Z,11.93
2023-02-19T09:51:35.910Z,11.40
2023-02-19T09:54:05.672Z,11.93
2023-02-19T09:56:36.395Z,13.70
2023-02-19T09:59:05.492Z,21.77
2023-02-19T10:01:38.946Z,17.63
2023-02-19T10:04:07.442Z,13.07
2023-02-19T10:06:36.397Z,15.77
2023-02-19T10:09:17.768Z,20.97
2023-02-19T10:11:50.022Z,16.33
2023-02-19T10:14:23.341Z,14.60
2023-02-19T10:16:53.676Z,15.43
2023-02-19T10:19:22.070Z,12.77
2023-02-19T10:21:50.511Z,13.13
2023-02-19T10:24:24.123Z,11.30
2023-02-19T10:26:54.224Z,12.47
2023-02-19T10:29:24.843Z,10.80
2023-02-19T10:32:14.639Z,32.20
2023-02-19T10:34:43.070Z,20.00
2023-02-19T10:37:17.814Z,18.50
2023-02-19T10:39:47.978Z,13.50
2023-02-19T10:42:23.252Z,12.83
2023-02-19T10:44:58.597Z,11.37
2023-02-19T10:47:28.559Z,12.70
2023-02-19T10:50:01.509Z,13.70
2023-02-19T10:52:34.481Z,12.10
2023-02-19T10:55:17.736Z,11.17
2023-02-19T10:57:47.931Z,12.50
2023-02-19T11:00:26.939Z,11.63
2023-02-19T11:03:19.769Z,11.97
2023-02-19T11:06:09.198Z,12.07
2023-02-19T11:08:51.738Z,12.10
2023-02-19T11:11:27.272Z,14.60
2023-02-19T11:13:59.310Z,10.37
2023-02-19T11:16:43.430Z,7.20
2023-02-19T11:19:30.362Z,20.57
2023-02-19T11:22:00.342Z,11.27
2023-02-19T11:24:35.276Z,9.20
2023-02-19T11:27:07.601Z,15.30
2023-02-19T11:29:37.455Z,23.17
2023-02-19T11:32:27.528Z,14.67
2023-02-19T11:35:23.190Z,13.20
2023-02-19T11:37:59.621Z,17.00
2023-02-19T11:40:40.742Z,21.63
2023-02-19T11:43:21.397Z,15.33
2023-02-19T11:45:59.811Z,14.47
2023-02-19T11:48:55.600Z,10.60
2023-02-19T11:51:37.930Z,16.83
2023-02-19T11:54:28.614Z,17.07
2023-02-19T11:57:08.275Z,14.77
2023-02-19T11:59:45.718Z,11.43
2023-02-19T12:02:44.349Z,14.50
2023-02-19T12:05:33.988Z,20.20
2023-02-19T12:08:38.034Z,11.33
2023-02-19T12:11:34.429Z,9.87
2023-02-19T12:14:20.631Z,15.17
2023-02-19T12:16:56.445Z,12.70
2023-02-19T12:19:46.692Z,10.07
2023-02-19T12:22:28.160Z,13.10
2023-02-19T12:25:23.852Z,13.07
2023-02-19T12:28:09.374Z,10.80
2023-02-19T12:31:20.191Z,13.57
2023-02-19T12:34:22.513Z,13.30
2023-02-19T12:37:05.692Z,11.87
2023-02-19T12:39:46.924Z,12.03
2023-02-19T12:42:29.541Z,12.70
2023-02-19T12:45:02.705Z,13.10
2023-02-19T12:47:38.127Z,12.23
2023-02-19T12:50:18.153Z,12.37
2023-02-19T12:52:52.956Z,14.90
2023-02-19T12:55:25.933Z,14.17
2023-02-19T12:57:56.123Z,17.20
2023-02-19T13:00:35.296Z,18.33
2023-02-19T13:03:11.288Z,19.17
2023-02-19T13:05:48.543Z,20.77
2023-02-19T13:08:23.295Z,18.93
2023-02-19T13:10:56.168Z,16.87
2023-02-19T13:13:29.412Z,14.40
2023-02-19T13:16:03.957Z,16.13
2023-02-19T13:18:39.396Z,15.63
2023-02-19T13:21:08.524Z,14.93
2023-02-19T13:24:00.255Z,18.07
2023-02-19T13:26:50.486Z,15.67
2023-02-19T13:29:42.921Z,16.00
2023-02-19T13:32:33.201Z,14.30
2023-02-19T13:35:22.280Z,16.80
2023-02-19T13:37:52.182Z,15.10
2023-02-19T13:40:31.430Z,13.53
2023-02-19T13:43:02.401Z,17.60
2023-02-19T13:45:35.505Z,16.27
2023-02-19T13:48:16.537Z,19.80
2023-02-19T13:50:45.059Z,27.53
2023-02-19T13:53:52.578Z,19.90
2023-02-19T13:56:40.837Z,20.30
2023-02-19T13:59:26.222Z,19.27
2023-02-19T14:02:14.572Z,19.03
2023-02-19T14:04:50.319Z,18.57
2023-02-19T14:07:51.511Z,24.37
2023-02-19T14:11:02.380Z,18.03
2023-02-19T14:14:12.022Z,21.87
2023-02-19T14:17:04.901Z,28.80
2023-02-19T14:19:52.588Z,19.33
2023-02-19T14:22:52.714Z,16.93
2023-02-19T14:25:34.851Z,17.13
2023-02-19T14:28:08.432Z,17.00
2023-02-19T14:30:46.238Z,19.53
2023-02-19T14:33:18.591Z,17.77
2023-02-19T14:35:49.185Z,17.03
2023-02-19T14:38:22.450Z,19.10
2023-02-19T14:40:53.282Z,20.07
2023-02-19T14:43:24.656Z,22.13
2023-02-19T14:45:58.061Z,17.40
2023-02-19T14:48:33.121Z,17.63
2023-02-19T14:51:07.991Z,14.73
2023-02-19T14:53:40.808Z,16.70
2023-02-19T14:56:21.127Z,19.57
2023-02-19T14:59:08.394Z,16.53
2023-02-19T15:01:36.892Z,16.50
2023-02-19T15:04:07.278Z,17.90
2023-02-19T15:06:36.890Z,19.30
2023-02-19T15:09:08.062Z,15.83
2023-02-19T15:11:37.103Z,18.30
2023-02-19T15:14:08.006Z,20.43
2023-02-19T15:16:37.850Z,20.63
2023-02-19T15:19:10.766Z,18.90
2023-02-19T15:21:43.940Z,17.90
2023-02-19T15:24:14.962Z,17.80
2023-02-19T15:26:48.380Z,15.13
2023-02-19T15:29:18.464Z,41.83
2023-02-19T15:31:48.446Z,17.00
2023-02-19T15:34:20.606Z,16.23
2023-02-19T15:36:51.267Z,14.93
2023-02-19T15:39:23.669Z,17.87
2023-02-19T15:42:00.117Z,16.77
2023-02-19T15:44:40.823Z,16.00
2023-02-19T15:47:16.788Z,15.63
2023-02-19T15:49:53.590Z,14.43
2023-02-19T15:52:40.276Z,17.33
2023-02-19T15:55:22.246Z,17.97
2023-02-19T15:57:56.606Z,14.47
2023-02-19T16:00:32.550Z,15.23
2023-02-19T16:03:01.419Z,17.23
2023-02-19T16:05:42.038Z,16.83
2023-02-19T16:08:23.740Z,16.77
2023-02-19T16:10:57.194Z,18.13
2023-02-19T16:13:27.013Z,17.17
2023-02-19T16:16:00.357Z,16.07
2023-02-19T16:18:29.555Z,16.93
2023-02-19T16:20:59.652Z,17.47
2023-02-19T16:23:28.199Z,17.50
2023-02-19T16:26:01.680Z,16.43
2023-02-19T16:28:35.631Z,17.03
2023-02-19T16:31:06.805Z,17.20
2023-02-19T16:33:41.245Z,18.50
2023-02-19T16:36:39.343Z,18.60
2023-02-19T16:39:22.113Z,18.47
2023-02-19T16:42:17.654Z,17.53
2023-02-19T16:44:47.126Z,18.00
2023-02-19T16:47:34.131Z,18.53
2023-02-19T16:50:06.104Z,27.03
2023-02-19T16:52:39.032Z,22.30
2023-02-19T16:55:14.585Z,21.43
2023-02-19T16:57:43.054Z,27.47
2023-02-19T17:00:18.799Z,20.27
2023-02-19T17:02:48.552Z,20.20
2023-02-19T17:05:17.435Z,24.27
2023-02-19T17:07:47.333Z,22.33
2023-02-19T17:10:17.615Z,30.80
2023-02-19T17:12:45.931Z,28.80
2023-02-19T17:15:14.538Z,26.47
2023-02-19T17:17:43.182Z,23.70
2023-02-19T17:20:22.506Z,24.93
2023-02-19T17:22:52.387Z,26.20
2023-02-19T17:25:20.794Z,29.97
2023-02-19T17:27:49.187Z,30.23
2023-02-19T17:30:21.912Z,27.37
2023-02-19T17:32:50.363Z,29.20
2023-02-19T17:35:18.770Z,30.70
2023-02-19T17:37:47.167Z,37.43
2023-02-19T17:40:32.787Z,35.03
2023-02-19T17:43:02.918Z,42.00
2023-02-19T17:45:31.433Z,32.83
2023-02-19T17:48:00.202Z,35.27
2023-02-19T17:50:30.999Z,32.50
2023-02-19T17:52:59.872Z,32.97
2023-02-19T17:55:29.642Z,35.07
2023-02-19T17:57:58.532Z,28.63
2023-02-19T18:00:29.309Z,32.03
2023-02-19T18:02:57.943Z,33.10
2023-02-19T18:05:26.378Z,32.73
2023-02-19T18:07:55.409Z,29.20
2023-02-19T18:10:25.318Z,26.73
2023-02-19T18:12:55.123Z,33.10
2023-02-19T18:15:26.957Z,26.47
2023-02-19T18:17:56.198Z,29.27
2023-02-19T18:20:26.243Z,32.10
2023-02-19T18:22:55.403Z,30.03
2023-02-19T18:25:24.516Z,32.77
2023-02-19T18:27:56.308Z,36.40
2023-02-19T18:30:25.170Z,33.93
2023-02-19T18:32:53.695Z,37.90
2023-02-19T18:35:22.767Z,42.13
2023-02-19T18:37:52.712Z,35.67
2023-02-19T18:40:21.438Z,37.10
2023-02-19T18:42:49.890Z,37.77
2023-02-19T18:45:20.495Z,34.80
2023-02-19T18:47:49.316Z,38.87
2023-02-19T18:50:19.214Z,38.33
2023-02-19T18:52:47.686Z,49.13
2023-02-19T18:55:16.133Z,43.67
2023-02-19T18:57:50.161Z,46.03
2023-02-19T19:00:23.719Z,46.33
2023-02-19T19:02:52.245Z,50.97
2023-02-19T19:05:23.207Z,44.10
2023-02-19T19:07:53.238Z,42.00
2023-02-19T19:10:21.915Z,37.07
2023-02-19T19:12:50.497Z,42.27
2023-02-19T19:15:20.539Z,39.67
2023-02-19T19:17:49.491Z,46.73
2023-02-19T19:20:19.614Z,46.47
2023-02-19T19:22:50.667Z,46.20
2023-02-19T19:25:19.938Z,49.03
2023-02-19T19:27:50.701Z,45.50
2023-02-19T19:30:21.301Z,47.03
2023-02-19T19:32:51.452Z,45.83
2023-02-19T19:35:22.612Z,45.47
2023-02-19T19:37:51.417Z,50.57
2023-02-19T19:40:20.289Z,40.23
2023-02-19T19:42:51.830Z,40.03
2023-02-19T19:45:22.006Z,42.60
2023-02-19T19:47:51.310Z,38.60
2023-02-19T19:50:20.007Z,42.60
2023-02-19T19:52:50.213Z,36.67
2023-02-19T19:55:18.920Z,40.00
2023-02-19T19:57:48.583Z,40.13
2023-02-19T20:00:19.681Z,36.70
2023-02-19T20:02:49.512Z,42.90
2023-02-19T20:05:18.154Z,40.10
2023-02-19T20:07:46.743Z,41.33
2023-02-19T20:10:16.179Z,43.40
2023-02-19T20:12:45.814Z,41.23
2023-02-19T20:15:15.222Z,38.43
2023-02-19T20:17:43.694Z,32.77
2023-02-19T20:20:14.305Z,33.37
2023-02-19T20:22:43.685Z,33.53
2023-02-19T20:25:13.037Z,35.90
2023-02-19T20:27:42.270Z,48.17
2023-02-19T20:30:15.776Z,34.07
2023-02-19T20:32:45.021Z,35.30
2023-02-19T20:35:17.142Z,38.37
2023-02-19T20:37:48.145Z,40.27
2023-02-19T20:40:19.952Z,45.70
2023-02-19T20:42:49.688Z,40.20
2023-02-19T20:45:19.018Z,34.40
2023-02-19T20:47:48.339Z,36.20
2023-02-19T20:50:20.252Z,34.43
2023-02-19T20:52:49.903Z,40.07
2023-02-19T20:55:19.480Z,36.67
2023-02-19T20:57:48.809Z,45.57
2023-02-19T21:00:19.388Z,37.27
2023-02-19T21:02:49.193Z,36.60
2023-02-19T21:05:21.332Z,38.50
2023-02-19T21:07:51.071Z,40.17
2023-02-19T21:10:20.478Z,47.37
2023-02-19T21:12:50.814Z,40.00
2023-02-19T21:15:20.656Z,34.70
2023-02-19T21:17:50.982Z,40.43
2023-02-19T21:20:21.713Z,37.37
2023-02-19T21:22:50.702Z,38.40
2023-02-19T21:25:19.177Z,37.13
2023-02-19T21:27:48.283Z,47.77
2023-02-19T21:30:17.532Z,52.67
2023-02-19T21:32:46.622Z,37.07
2023-02-19T21:35:15.235Z,40.87
2023-02-19T21:37:46.280Z,35.20
2023-02-19T21:40:15.202Z,42.03
2023-02-19T21:42:43.577Z,43.13
2023-02-19T21:45:11.944Z,36.80
2023-02-19T21:47:40.269Z,48.97
2023-02-19T21:50:09.689Z,38.70
2023-02-19T21:52:38.064Z,45.27
2023-02-19T21:55:08.480Z,42.03
2023-02-19T21:57:37.198Z,35.80
2023-02-19T22:00:06.994Z,35.40
2023-02-19T22:02:35.835Z,43.27
2023-02-19T22:05:04.488Z,42.87
2023-02-19T22:07:32.978Z,39.20
2023-02-19T22:10:01.406Z,39.27
2023-02-19T22:12:31.165Z,37.60
2023-02-19T22:14:59.496Z,36.23
2023-02-19T22:17:27.912Z,35.07
2023-02-19T22:19:56.306Z,40.30
2023-02-19T22:22:24.736Z,38.10
2023-02-19T22:24:53.094Z,36.47
2023-02-19T22:27:21.485Z,43.97
2023-02-19T22:29:51.214Z,38.13
2023-02-19T22:32:19.776Z,36.03
2023-02-19T22:34:51.057Z,38.33
2023-02-19T22:37:20.331Z,46.97
2023-02-19T22:39:48.889Z,39.60
2023-02-19T22:42:17.798Z,35.20
2023-02-19T22:44:46.500Z,35.43
2023-02-19T22:47:16.301Z,32.77
2023-02-19T22:49:45.512Z,32.27
2023-02-19T22:52:14.581Z,30.17
2023-02-19T22:54:42.982Z,32.77
2023-02-19T22:57:11.372Z,56.17
2023-02-19T22:59:39.782Z,36.63
2023-02-19T23:02:08.144Z,35.77
2023-02-19T23:04:37.999Z,30.73
2023-02-19T23:07:07.756Z,31.37
2023-02-19T23:09:36.234Z,35.07
2023-02-19T23:12:08.142Z,32.20
2023-02-19T23:14:37.228Z,36.27
2023-02-19T23:17:05.723Z,31.17
2023-02-19T23:19:34.434Z,32.00
2023-02-19T23:22:04.348Z,33.00
2023-02-19T23:24:33.183Z,31.10
2023-02-19T23:27:01.532Z,30.17
2023-02-19T23:29:30.857Z,32.63
2023-02-19T23:32:00.386Z,32.30
2023-02-19T23:34:28.891Z,36.63
2023-02-19T23:36:59.558Z,35.80
2023-02-19T23:39:29.690Z,34.93
2023-02-19T23:41:59.096Z,34.03
2023-02-19T23:44:27.514Z,33.73
2023-02-19T23:46:55.835Z,28.60
2023-02-19T23:49:25.401Z,32.00
2023-02-19T23:51:53.861Z,37.90
2023-02-19T23:54:22.696Z,28.90
2023-02-19T23:56:52.491Z,32.07
2023-02-19T23:59:20.907Z,31.40
